VECC/CCU METAR and TAF weather

Enter ICAO airport designator
Station Type Date Time Source
VECC METAR 2021/07/28 20:30 UTC NOAA

VECC 282030Z 29009KT 3200 -RA SCT015 FEW025CB BKN090 29/27 Q0992 NOSIG


Station Type Date Time Source
VECC Decoded METAR 2021/07/28 20:30 UTC NOAA

Calcutta / Dum Dum, India (VECC) 22-39N 088-27E 6M
Jul 28, 2021 - 04:30 PM EDT / 2021.07.28 2030 UTC
Wind: from the WNW (290 degrees) at 10 MPH (9 KT):0
Visibility: 1 mile(s):0
Sky conditions: mostly cloudy
Weather: light rain; Cumulonimbus clouds observed
Temperature: 84 F (29 C)
Dew Point: 80 F (27 C)
Relative Humidity: 88%
Pressure (altimeter): 29.29 in. Hg (0992 hPa)
ob: VECC 282030Z 29009KT 3200 -RA SCT015 FEW025CB BKN090 29/27 Q0992 NOSIG
cycle: 20

Station Type Date Time Source
VECC TAF 2021/07/28 12:47 UTC NOAA

TAF VECC 281100Z 2812/2918 28007KT 3200 RA HZ SCT015 BKN090
TEMPO 2812/2816 1500 TSRA SCT015 FEW025CB OVC090
BECMG 2821/2823 2400 RA
TEMPO 2900/2904 1400 TSRA SCT015 FEW025CB OVC090
BECMG 2904/2906 3200 RA HZ
TEMPO 2907/2911 1500 TSRA SCT015 FEW025CB OVC090

Example: see airport list